sensor_id;sensor_type;location;lat;lon;timestamp;pressure;altitude;pressure_sealevel;temperature;humidity
76011;BME280;64701;43.536;1.478;2024-02-21T00:00:15;100647.19;;;8.55;95.86
76011;BME280;64701;43.536;1.478;2024-02-21T00:02:41;100646.47;;;8.53;92.03
76011;BME280;64701;43.536;1.478;2024-02-21T00:05:06;100642.22;;;8.52;91.33
76011;BME280;64701;43.536;1.478;2024-02-21T00:07:32;100641.38;;;8.51;90.79
76011;BME280;64701;43.536;1.478;2024-02-21T00:09:57;100643.19;;;8.51;91.11
76011;BME280;64701;43.536;1.478;2024-02-21T00:12:22;100635.41;;;8.49;90.95
76011;BME280;64701;43.536;1.478;2024-02-21T00:14:48;100647.78;;;8.49;92.12
76011;BME280;64701;43.536;1.478;2024-02-21T00:17:13;100653.88;;;8.49;92.48
76011;BME280;64701;43.536;1.478;2024-02-21T00:19:38;100649.72;;;8.47;91.46
76011;BME280;64701;43.536;1.478;2024-02-21T00:22:03;100643.63;;;8.46;91.49
76011;BME280;64701;43.536;1.478;2024-02-21T00:24:29;100641.97;;;8.45;90.83
76011;BME280;64701;43.536;1.478;2024-02-21T00:26:54;100639.34;;;8.45;91.07
76011;BME280;64701;43.536;1.478;2024-02-21T00:29:19;100642.13;;;8.44;90.83
76011;BME280;64701;43.536;1.478;2024-02-21T00:31:44;100639.47;;;8.44;90.52
76011;BME280;64701;43.536;1.478;2024-02-21T00:34:10;100630.88;;;8.42;90.96
76011;BME280;64701;43.536;1.478;2024-02-21T00:36:36;100618.50;;;8.42;90.90
76011;BME280;64701;43.536;1.478;2024-02-21T00:39:01;100615.03;;;8.42;91.80
76011;BME280;64701;43.536;1.478;2024-02-21T00:41:26;100610.09;;;8.39;96.42
76011;BME280;64701;43.536;1.478;2024-02-21T00:43:52;100596.50;;;8.34;96.85
76011;BME280;64701;43.536;1.478;2024-02-21T00:46:17;100594.03;;;8.32;96.02
76011;BME280;64701;43.536;1.478;2024-02-21T00:48:42;100585.41;;;8.30;95.46
76011;BME280;64701;43.536;1.478;2024-02-21T00:51:07;100581.06;;;8.29;94.00
76011;BME280;64701;43.536;1.478;2024-02-21T00:53:33;100571.34;;;8.30;92.38
76011;BME280;64701;43.536;1.478;2024-02-21T00:55:58;100565.13;;;8.31;92.38
76011;BME280;64701;43.536;1.478;2024-02-21T00:58:23;100550.13;;;8.31;91.40
76011;BME280;64701;43.536;1.478;2024-02-21T01:00:49;100554.44;;;8.32;91.91
76011;BME280;64701;43.536;1.478;2024-02-21T01:03:14;100554.69;;;8.29;93.98
76011;BME280;64701;43.536;1.478;2024-02-21T01:05:39;100550.44;;;8.28;93.34
76011;BME280;64701;43.536;1.478;2024-02-21T01:08:05;100547.78;;;8.28;92.75
76011;BME280;64701;43.536;1.478;2024-02-21T01:10:30;100533.59;;;8.29;93.03
76011;BME280;64701;43.536;1.478;2024-02-21T01:12:55;100524.31;;;8.25;95.23
76011;BME280;64701;43.536;1.478;2024-02-21T01:15:20;100511.97;;;8.26;95.87
76011;BME280;64701;43.536;1.478;2024-02-21T01:17:46;100502.25;;;8.26;95.20
76011;BME280;64701;43.536;1.478;2024-02-21T01:20:11;100502.09;;;8.28;95.10
76011;BME280;64701;43.536;1.478;2024-02-21T01:22:36;100507.38;;;8.28;94.58
76011;BME280;64701;43.536;1.478;2024-02-21T01:25:02;100501.56;;;8.24;96.09
76011;BME280;64701;43.536;1.478;2024-02-21T01:27:27;100488.50;;;8.23;95.76
76011;BME280;64701;43.536;1.478;2024-02-21T01:29:52;100488.69;;;8.21;95.97
76011;BME280;64701;43.536;1.478;2024-02-21T01:32:18;100487.53;;;8.24;94.63
76011;BME280;64701;43.536;1.478;2024-02-21T01:34:43;100482.13;;;8.25;93.70
76011;BME280;64701;43.536;1.478;2024-02-21T01:37:08;100473.50;;;8.23;98.89
76011;BME280;64701;43.536;1.478;2024-02-21T01:39:34;100477.44;;;8.19;99.92
76011;BME280;64701;43.536;1.478;2024-02-21T01:41:59;100471.19;;;8.20;96.89
76011;BME280;64701;43.536;1.478;2024-02-21T01:44:25;100470.22;;;8.21;95.25
76011;BME280;64701;43.536;1.478;2024-02-21T01:46:50;100465.59;;;8.23;95.09
76011;BME280;64701;43.536;1.478;2024-02-21T01:49:17;100456.84;;;8.23;95.62
76011;BME280;64701;43.536;1.478;2024-02-21T01:51:42;100455.03;;;8.23;94.69
76011;BME280;64701;43.536;1.478;2024-02-21T01:54:07;100457.69;;;8.23;94.22
76011;BME280;64701;43.536;1.478;2024-02-21T01:56:33;100455.22;;;8.22;94.05
76011;BME280;64701;43.536;1.478;2024-02-21T01:58:59;100452.72;;;8.20;93.74
76011;BME280;64701;43.536;1.478;2024-02-21T02:01:24;100458.00;;;8.20;93.97
76011;BME280;64701;43.536;1.478;2024-02-21T02:03:50;100456.34;;;8.19;93.67
76011;BME280;64701;43.536;1.478;2024-02-21T02:06:16;100446.75;;;8.18;93.61
76011;BME280;64701;43.536;1.478;2024-02-21T02:08:41;100447.75;;;8.17;93.63
76011;BME280;64701;43.536;1.478;2024-02-21T02:11:07;100447.09;;;8.15;95.79
76011;BME280;64701;43.536;1.478;2024-02-21T02:13:32;100441.13;;;8.13;95.09
76011;BME280;64701;43.536;1.478;2024-02-21T02:15:57;100443.09;;;8.11;95.31
76011;BME280;64701;43.536;1.478;2024-02-21T02:18:23;100430.22;;;8.08;95.47
76011;BME280;64701;43.536;1.478;2024-02-21T02:20:48;100424.25;;;8.06;94.24
76011;BME280;64701;43.536;1.478;2024-02-21T02:25:45;100428.19;;;8.02;94.34
76011;BME280;64701;43.536;1.478;2024-02-21T02:28:10;100423.06;;;8.00;94.50
76011;BME280;64701;43.536;1.478;2024-02-21T02:30:36;100424.34;;;7.96;95.04
76011;BME280;64701;43.536;1.478;2024-02-21T02:33:02;100413.25;;;7.93;94.94
76011;BME280;64701;43.536;1.478;2024-02-21T02:35:27;100416.91;;;7.92;95.04
76011;BME280;64701;43.536;1.478;2024-02-21T02:37:52;100421.50;;;7.90;95.22
76011;BME280;64701;43.536;1.478;2024-02-21T02:40:18;100419.16;;;7.87;97.19
76011;BME280;64701;43.536;1.478;2024-02-21T02:42:43;100415.16;;;7.83;96.47
76011;BME280;64701;43.536;1.478;2024-02-21T02:45:08;100406.75;;;7.79;96.27
76011;BME280;64701;43.536;1.478;2024-02-21T02:47:34;100407.88;;;7.76;95.53
76011;BME280;64701;43.536;1.478;2024-02-21T02:49:59;100414.13;;;7.75;94.53
76011;BME280;64701;43.536;1.478;2024-02-21T02:52:25;100412.78;;;7.71;95.28
76011;BME280;64701;43.536;1.478;2024-02-21T02:54:50;100399.06;;;7.68;97.14
76011;BME280;64701;43.536;1.478;2024-02-21T02:57:17;100384.00;;;7.60;99.44
76011;BME280;64701;43.536;1.478;2024-02-21T02:59:42;100390.56;;;7.56;98.46
76011;BME280;64701;43.536;1.478;2024-02-21T03:02:07;100380.31;;;7.53;96.56
76011;BME280;64701;43.536;1.478;2024-02-21T03:04:33;100385.22;;;7.48;99.33
76011;BME280;64701;43.536;1.478;2024-02-21T03:06:58;100366.25;;;7.45;99.32
76011;BME280;64701;43.536;1.478;2024-02-21T03:09:23;100366.69;;;7.40;99.25
76011;BME280;64701;43.536;1.478;2024-02-21T03:11:48;100361.72;;;7.37;99.78
76011;BME280;64701;43.536;1.478;2024-02-21T03:14:14;100355.78;;;7.35;99.22
76011;BME280;64701;43.536;1.478;2024-02-21T03:16:39;100354.94;;;7.34;97.74
76011;BME280;64701;43.536;1.478;2024-02-21T03:19:04;100350.81;;;7.32;97.46
76011;BME280;64701;43.536;1.478;2024-02-21T03:21:29;100343.91;;;7.31;96.89
76011;BME280;64701;43.536;1.478;2024-02-21T03:23:55;100344.19;;;7.28;96.58
76011;BME280;64701;43.536;1.478;2024-02-21T03:26:20;100347.00;;;7.26;96.30
76011;BME280;64701;43.536;1.478;2024-02-21T03:28:46;100350.03;;;7.22;96.77
76011;BME280;64701;43.536;1.478;2024-02-21T03:31:11;100353.97;;;7.18;96.67
76011;BME280;64701;43.536;1.478;2024-02-21T03:33:37;100361.19;;;7.16;98.15
76011;BME280;64701;43.536;1.478;2024-02-21T03:36:03;100365.69;;;7.06;100.00
76011;BME280;64701;43.536;1.478;2024-02-21T03:38:29;100365.31;;;7.01;100.00
76011;BME280;64701;43.536;1.478;2024-02-21T03:40:54;100369.06;;;6.98;98.20
76011;BME280;64701;43.536;1.478;2024-02-21T03:43:19;100366.59;;;6.96;97.68
76011;BME280;64701;43.536;1.478;2024-02-21T03:45:44;100374.63;;;6.95;97.12
76011;BME280;64701;43.536;1.478;2024-02-21T03:48:10;100372.13;;;6.93;97.30
76011;BME280;64701;43.536;1.478;2024-02-21T03:50:35;100378.81;;;6.88;98.39
76011;BME280;64701;43.536;1.478;2024-02-21T03:53:00;100378.28;;;6.84;97.00
76011;BME280;64701;43.536;1.478;2024-02-21T03:55:26;100378.56;;;6.81;97.16
76011;BME280;64701;43.536;1.478;2024-02-21T03:57:51;100371.13;;;6.77;97.75
76011;BME280;64701;43.536;1.478;2024-02-21T04:00:16;100373.22;;;6.73;97.41
76011;BME280;64701;43.536;1.478;2024-02-21T04:02:42;100379.59;;;6.71;97.71
76011;BME280;64701;43.536;1.478;2024-02-21T04:05:07;100376.44;;;6.67;97.08
76011;BME280;64701;43.536;1.478;2024-02-21T04:07:36;100376.59;;;6.66;97.15
76011;BME280;64701;43.536;1.478;2024-02-21T04:10:01;100374.22;;;6.63;96.74
76011;BME280;64701;43.536;1.478;2024-02-21T04:12:26;100362.88;;;6.62;96.71
76011;BME280;64701;43.536;1.478;2024-02-21T04:14:52;100355.28;;;6.59;96.96
76011;BME280;64701;43.536;1.478;2024-02-21T04:17:17;100355.56;;;6.56;98.96
76011;BME280;64701;43.536;1.478;2024-02-21T04:19:42;100353.22;;;6.53;98.48
76011;BME280;64701;43.536;1.478;2024-02-21T04:22:07;100352.41;;;6.52;97.33
76011;BME280;64701;43.536;1.478;2024-02-21T04:24:33;100348.09;;;6.51;98.78
76011;BME280;64701;43.536;1.478;2024-02-21T04:26:58;100351.03;;;6.48;99.13
76011;BME280;64701;43.536;1.478;2024-02-21T04:29:23;100353.81;;;6.47;99.97
76011;BME280;64701;43.536;1.478;2024-02-21T04:31:49;100353.13;;;6.45;100.00
76011;BME280;64701;43.536;1.478;2024-02-21T04:34:14;100349.25;;;6.39;100.00
76011;BME280;64701;43.536;1.478;2024-02-21T04:36:39;100344.44;;;6.35;100.00
76011;BME280;64701;43.536;1.478;2024-02-21T04:39:04;100343.34;;;6.28;100.00
76011;BME280;64701;43.536;1.478;2024-02-21T04:41:30;100337.00;;;6.21;100.00
76011;BME280;64701;43.536;1.478;2024-02-21T04:43:55;100335.13;;;6.13;100.00
76011;BME280;64701;43.536;1.478;2024-02-21T04:46:20;100332.88;;;6.08;100.00
76011;BME280;64701;43.536;1.478;2024-02-21T04:48:45;100337.88;;;6.11;100.00
76011;BME280;64701;43.536;1.478;2024-02-21T04:51:11;100340.22;;;6.14;100.00
76011;BME280;64701;43.536;1.478;2024-02-21T04:53:36;100330.38;;;6.17;100.00
76011;BME280;64701;43.536;1.478;2024-02-21T04:56:02;100330.38;;;6.17;100.00
76011;BME280;64701;43.536;1.478;2024-02-21T04:58:27;100324.31;;;6.16;99.70
76011;BME280;64701;43.536;1.478;2024-02-21T05:00:53;100327.06;;;6.14;100.00
76011;BME280;64701;43.536;1.478;2024-02-21T05:03:19;100329.03;;;6.12;100.00
76011;BME280;64701;43.536;1.478;2024-02-21T05:05:45;100328.47;;;6.09;100.00
76011;BME280;64701;43.536;1.478;2024-02-21T05:08:10;100327.63;;;6.08;100.00
76011;BME280;64701;43.536;1.478;2024-02-21T05:10:35;100318.91;;;6.08;100.00
76011;BME280;64701;43.536;1.478;2024-02-21T05:13:01;100322.69;;;6.05;100.00
76011;BME280;64701;43.536;1.478;2024-02-21T05:15:26;100323.78;;;6.03;100.00
76011;BME280;64701;43.536;1.478;2024-02-21T05:17:52;100322.94;;;6.02;100.00
76011;BME280;64701;43.536;1.478;2024-02-21T05:20:17;100326.56;;;6.01;100.00
76011;BME280;64701;43.536;1.478;2024-02-21T05:22:42;100324.91;;;6.00;100.00
76011;BME280;64701;43.536;1.478;2024-02-21T05:25:08;100324.22;;;5.98;99.70
76011;BME280;64701;43.536;1.478;2024-02-21T05:27:33;100325.19;;;5.97;99.75
76011;BME280;64701;43.536;1.478;2024-02-21T05:29:59;100324.50;;;5.95;100.00
76011;BME280;64701;43.536;1.478;2024-02-21T05:32:25;100329.22;;;5.92;100.00
76011;BME280;64701;43.536;1.478;2024-02-21T05:34:51;100336.25;;;5.91;99.93
76011;BME280;64701;43.536;1.478;2024-02-21T05:37:16;100329.34;;;5.90;99.78
76011;BME280;64701;43.536;1.478;2024-02-21T05:39:41;100330.34;;;5.89;100.00
76011;BME280;64701;43.536;1.478;2024-02-21T05:42:07;100329.88;;;5.84;100.00
76011;BME280;64701;43.536;1.478;2024-02-21T05:44:32;100332.50;;;5.84;100.00
76011;BME280;64701;43.536;1.478;2024-02-21T05:46:58;100328.25;;;5.83;100.00
76011;BME280;64701;43.536;1.478;2024-02-21T05:49:23;100329.22;;;5.82;100.00
76011;BME280;64701;43.536;1.478;2024-02-21T05:51:48;100329.47;;;5.79;100.00
76011;BME280;64701;43.536;1.478;2024-02-21T05:54:14;100319.94;;;5.78;100.00
76011;BME280;64701;43.536;1.478;2024-02-21T05:56:39;100309.41;;;5.78;100.00
76011;BME280;64701;43.536;1.478;2024-02-21T05:59:04;100313.03;;;5.77;100.00
76011;BME280;64701;43.536;1.478;2024-02-21T06:01:29;100311.25;;;5.68;100.00
76011;BME280;64701;43.536;1.478;2024-02-21T06:03:55;100305.59;;;5.63;100.00
76011;BME280;64701;43.536;1.478;2024-02-21T06:06:20;100299.63;;;5.61;100.00
76011;BME280;64701;43.536;1.478;2024-02-21T06:08:47;100303.09;;;5.61;100.00
76011;BME280;64701;43.536;1.478;2024-02-21T06:11:12;100305.59;;;5.63;100.00
76011;BME280;64701;43.536;1.478;2024-02-21T06:13:38;100301.16;;;5.63;100.00
76011;BME280;64701;43.536;1.478;2024-02-21T06:16:04;100304.63;;;5.64;100.00
76011;BME280;64701;43.536;1.478;2024-02-21T06:18:29;100296.03;;;5.62;100.00
76011;BME280;64701;43.536;1.478;2024-02-21T06:20:55;100299.63;;;5.61;100.00
76011;BME280;64701;43.536;1.478;2024-02-21T06:23:20;100295.22;;;5.61;100.00
76011;BME280;64701;43.536;1.478;2024-02-21T06:25:45;100295.63;;;5.57;100.00
76011;BME280;64701;43.536;1.478;2024-02-21T06:28:12;100289.69;;;5.55;100.00
76011;BME280;64701;43.536;1.478;2024-02-21T06:30:38;100292.47;;;5.53;100.00
76011;BME280;64701;43.536;1.478;2024-02-21T06:33:04;100284.72;;;5.52;100.00
76011;BME280;64701;43.536;1.478;2024-02-21T06:35:29;100286.53;;;5.51;100.00
76011;BME280;64701;43.536;1.478;2024-02-21T06:37:55;100285.56;;;5.52;100.00
76011;BME280;64701;43.536;1.478;2024-02-21T06:40:21;100283.78;;;5.53;100.00
76011;BME280;64701;43.536;1.478;2024-02-21T06:42:46;100283.78;;;5.53;100.00
76011;BME280;64701;43.536;1.478;2024-02-21T06:45:12;100288.19;;;5.52;100.00
76011;BME280;64701;43.536;1.478;2024-02-21T06:47:37;100289.97;;;5.52;100.00
76011;BME280;64701;43.536;1.478;2024-02-21T06:50:02;100294.28;;;5.53;100.00
76011;BME280;64701;43.536;1.478;2024-02-21T06:52:28;100298.69;;;5.52;100.00
76011;BME280;64701;43.536;1.478;2024-02-21T06:54:53;100305.75;;;5.52;100.00
76011;BME280;64701;43.536;1.478;2024-02-21T06:57:18;100310.03;;;5.53;100.00
76011;BME280;64701;43.536;1.478;2024-02-21T06:59:44;100302.16;;;5.53;100.00
76011;BME280;64701;43.536;1.478;2024-02-21T07:02:09;100303.81;;;5.54;100.00
76011;BME280;64701;43.536;1.478;2024-02-21T07:04:34;100308.78;;;5.57;100.00
76011;BME280;64701;43.536;1.478;2024-02-21T07:07:00;100308.78;;;5.57;100.00
76011;BME280;64701;43.536;1.478;2024-02-21T07:09:28;100309.47;;;5.59;100.00
76011;BME280;64701;43.536;1.478;2024-02-21T07:11:56;100301.44;;;5.60;100.00
76011;BME280;64701;43.536;1.478;2024-02-21T07:14:22;100301.44;;;5.60;100.00
76011;BME280;64701;43.536;1.478;2024-02-21T07:16:47;100311.81;;;5.62;100.00
76011;BME280;64701;43.536;1.478;2024-02-21T07:19:12;100304.63;;;5.64;100.00
76011;BME280;64701;43.536;1.478;2024-02-21T07:21:38;100306.94;;;5.67;100.00
76011;BME280;64701;43.536;1.478;2024-02-21T07:24:06;100300.59;;;5.69;100.00
76011;BME280;64701;43.536;1.478;2024-02-21T07:26:31;100302.25;;;5.70;100.00
76011;BME280;64701;43.536;1.478;2024-02-21T07:28:57;100308.06;;;5.74;100.00
76011;BME280;64701;43.536;1.478;2024-02-21T07:31:22;100307.22;;;5.73;100.00
76011;BME280;64701;43.536;1.478;2024-02-21T07:33:47;100303.09;;;5.71;100.00
76011;BME280;64701;43.536;1.478;2024-02-21T07:36:14;100303.75;;;5.73;100.00
76011;BME280;64701;43.536;1.478;2024-02-21T07:38:40;100310.41;;;5.77;100.00
76011;BME280;64701;43.536;1.478;2024-02-21T07:41:05;100315.78;;;5.85;100.00
76011;BME280;64701;43.536;1.478;2024-02-21T07:43:30;100306.69;;;5.89;100.00
76011;BME280;64701;43.536;1.478;2024-02-21T07:45:56;100307.75;;;5.96;100.00
76011;BME280;64701;43.536;1.478;2024-02-21T07:48:21;100310.09;;;5.99;100.00
76011;BME280;64701;43.536;1.478;2024-02-21T07:50:50;100301.66;;;6.05;100.00
76011;BME280;64701;43.536;1.478;2024-02-21T07:53:15;100298.31;;;6.13;100.00
76011;BME280;64701;43.536;1.478;2024-02-21T07:55:40;100292.63;;;6.18;100.00
76011;BME280;64701;43.536;1.478;2024-02-21T07:58:06;100298.84;;;6.17;100.00
76011;BME280;64701;43.536;1.478;2024-02-21T08:00:31;100296.91;;;6.19;100.00
76011;BME280;64701;43.536;1.478;2024-02-21T08:02:56;100304.63;;;6.20;100.00
76011;BME280;64701;43.536;1.478;2024-02-21T08:05:22;100297.72;;;6.19;100.00
76011;BME280;64701;43.536;1.478;2024-02-21T08:07:48;100297.00;;;6.27;100.00
76011;BME280;64701;43.536;1.478;2024-02-21T08:10:13;100292.69;;;6.26;100.00
76011;BME280;64701;43.536;1.478;2024-02-21T08:12:38;100289.78;;;6.29;100.00
76011;BME280;64701;43.536;1.478;2024-02-21T08:15:04;100278.44;;;6.28;100.00
76011;BME280;64701;43.536;1.478;2024-02-21T08:17:29;100284.91;;;6.34;100.00
76011;BME280;64701;43.536;1.478;2024-02-21T08:19:54;100273.81;;;6.40;100.00
76011;BME280;64701;43.536;1.478;2024-02-21T08:22:20;100273.53;;;6.43;100.00
76011;BME280;64701;43.536;1.478;2024-02-21T08:24:45;100272.47;;;6.36;100.00
76011;BME280;64701;43.536;1.478;2024-02-21T08:27:10;100268.56;;;6.40;100.00
76011;BME280;64701;43.536;1.478;2024-02-21T08:29:35;100259.69;;;6.41;100.00
76011;BME280;64701;43.536;1.478;2024-02-21T08:32:01;100267.59;;;6.41;100.00
76011;BME280;64701;43.536;1.478;2024-02-21T08:34:26;100267.97;;;6.46;100.00
76011;BME280;64701;43.536;1.478;2024-02-21T08:36:51;100267.13;;;6.45;100.00
76011;BME280;64701;43.536;1.478;2024-02-21T08:39:17;100270.75;;;6.44;100.00
76011;BME280;64701;43.536;1.478;2024-02-21T08:41:42;100267.38;;;6.52;100.00
76011;BME280;64701;43.536;1.478;2024-02-21T08:44:07;100262.88;;;6.62;100.00
76011;BME280;64701;43.536;1.478;2024-02-21T08:46:33;100262.69;;;6.73;100.00
76011;BME280;64701;43.536;1.478;2024-02-21T08:48:58;100269.09;;;6.88;100.00
76011;BME280;64701;43.536;1.478;2024-02-21T08:51:23;100271.03;;;7.04;100.00
76011;BME280;64701;43.536;1.478;2024-02-21T08:53:49;100272.69;;;7.23;100.00
76011;BME280;64701;43.536;1.478;2024-02-21T08:56:14;100274.19;;;7.43;100.00
76011;BME280;64701;43.536;1.478;2024-02-21T08:58:40;100275.34;;;7.66;100.00
76011;BME280;64701;43.536;1.478;2024-02-21T09:01:06;100270.88;;;7.93;100.00
76011;BME280;64701;43.536;1.478;2024-02-21T09:03:35;100275.97;;;8.20;100.00
76011;BME280;64701;43.536;1.478;2024-02-21T09:06:00;100265.75;;;8.51;100.00
76011;BME280;64701;43.536;1.478;2024-02-21T09:08:26;100265.66;;;8.85;100.00
76011;BME280;64701;43.536;1.478;2024-02-21T09:10:51;100266.72;;;9.16;100.00
76011;BME280;64701;43.536;1.478;2024-02-21T09:13:17;100257.94;;;9.48;100.00
76011;BME280;64701;43.536;1.478;2024-02-21T09:15:42;100263.03;;;9.82;100.00
76011;BME280;64701;43.536;1.478;2024-02-21T09:18:07;100257.63;;;10.14;100.00
76011;BME280;64701;43.536;1.478;2024-02-21T09:20:33;100256.69;;;10.54;100.00
76011;BME280;64701;43.536;1.478;2024-02-21T09:22:58;100249.50;;;10.94;100.00
76011;BME280;64701;43.536;1.478;2024-02-21T09:25:23;100231.44;;;11.35;100.00
76011;BME280;64701;43.536;1.478;2024-02-21T09:27:48;100226.44;;;11.77;99.10
76011;BME280;64701;43.536;1.478;2024-02-21T09:30:14;100211.03;;;12.17;96.12
76011;BME280;64701;43.536;1.478;2024-02-21T09:32:39;100219.75;;;12.61;94.78
76011;BME280;64701;43.536;1.478;2024-02-21T09:35:04;100227.19;;;13.08;93.86
76011;BME280;64701;43.536;1.478;2024-02-21T09:37:32;100214.94;;;13.57;92.22
76011;BME280;64701;43.536;1.478;2024-02-21T09:39:58;100217.06;;;14.02;90.00
76011;BME280;64701;43.536;1.478;2024-02-21T09:42:25;100203.41;;;14.18;86.86
76011;BME280;64701;43.536;1.478;2024-02-21T09:44:55;100210.81;;;14.23;86.12
76011;BME280;64701;43.536;1.478;2024-02-21T09:47:34;100206.94;;;14.32;86.03
76011;BME280;64701;43.536;1.478;2024-02-21T09:50:05;100211.97;;;14.55;85.67
76011;BME280;64701;43.536;1.478;2024-02-21T09:52:30;100202.59;;;14.72;81.66
76011;BME280;64701;43.536;1.478;2024-02-21T09:54:58;100199.78;;;14.93;81.63
76011;BME280;64701;43.536;1.478;2024-02-21T09:57:23;100200.81;;;15.32;83.76
76011;BME280;64701;43.536;1.478;2024-02-21T09:59:49;100209.22;;;15.68;79.20
76011;BME280;64701;43.536;1.478;2024-02-21T10:02:16;100200.75;;;15.91;76.22
76011;BME280;64701;43.536;1.478;2024-02-21T10:04:41;100200.63;;;16.30;76.14
76011;BME280;64701;43.536;1.478;2024-02-21T10:07:07;100206.50;;;16.52;74.33
76011;BME280;64701;43.536;1.478;2024-02-21T10:09:33;100210.16;;;16.64;72.49
76011;BME280;64701;43.536;1.478;2024-02-21T10:12:08;100206.59;;;16.77;69.54
76011;BME280;64701;43.536;1.478;2024-02-21T10:14:33;100208.84;;;16.80;64.32
76011;BME280;64701;43.536;1.478;2024-02-21T10:16:58;100208.00;;;17.11;66.39
76011;BME280;64701;43.536;1.478;2024-02-21T10:19:24;100204.09;;;17.38;68.45
76011;BME280;64701;43.536;1.478;2024-02-21T10:22:02;100196.28;;;17.37;60.53
76011;BME280;64701;43.536;1.478;2024-02-21T10:24:32;100208.56;;;17.44;59.16
76011;BME280;64701;43.536;1.478;2024-02-21T10:27:05;100213.41;;;17.61;63.89
76011;BME280;64701;43.536;1.478;2024-02-21T10:29:33;100211.81;;;17.46;58.94
76011;BME280;64701;43.536;1.478;2024-02-21T10:32:05;100224.88;;;17.68;59.29
76011;BME280;64701;43.536;1.478;2024-02-21T10:34:31;100218.09;;;17.83;59.92
76011;BME280;64701;43.536;1.478;2024-02-21T10:37:14;100216.88;;;18.04;60.07
76011;BME280;64701;43.536;1.478;2024-02-21T10:39:40;100226.84;;;17.97;55.83
76011;BME280;64701;43.536;1.478;2024-02-21T10:42:05;100218.50;;;17.87;53.57
76011;BME280;64701;43.536;1.478;2024-02-21T10:44:32;100210.53;;;17.55;54.33
76011;BME280;64701;43.536;1.478;2024-02-21T10:46:58;100211.50;;;17.36;52.46
76011;BME280;64701;43.536;1.478;2024-02-21T10:49:23;100208.16;;;17.16;54.90
76011;BME280;64701;43.536;1.478;2024-02-21T10:52:06;100202.56;;;16.61;56.08
76011;BME280;64701;43.536;1.478;2024-02-21T10:54:44;100199.38;;;16.78;59.11
76011;BME280;64701;43.536;1.478;2024-02-21T10:57:15;100203.41;;;16.62;56.78
76011;BME280;64701;43.536;1.478;2024-02-21T10:59:40;100198.97;;;16.36;59.57
76011;BME280;64701;43.536;1.478;2024-02-21T11:02:06;100198.44;;;16.14;58.96
76011;BME280;64701;43.536;1.478;2024-02-21T11:04:32;100197.88;;;15.92;60.10
76011;BME280;64701;43.536;1.478;2024-02-21T11:07:01;100196.69;;;15.82;60.25
76011;BME280;64701;43.536;1.478;2024-02-21T11:09:29;100188.50;;;15.70;60.64
76011;BME280;64701;43.536;1.478;2024-02-21T11:11:56;100195.06;;;15.61;60.25
76011;BME280;64701;43.536;1.478;2024-02-21T11:14:25;100193.81;;;15.44;59.03
76011;BME280;64701;43.536;1.478;2024-02-21T11:16:51;100184.38;;;15.48;61.00
76011;BME280;64701;43.536;1.478;2024-02-21T11:19:23;100184.38;;;15.61;63.89
76011;BME280;64701;43.536;1.478;2024-02-21T11:21:50;100178.22;;;15.47;60.76
76011;BME280;64701;43.536;1.478;2024-02-21T11:24:28;100171.69;;;15.37;58.38
76011;BME280;64701;43.536;1.478;2024-02-21T11:26:54;100176.38;;;15.48;58.70
76011;BME280;64701;43.536;1.478;2024-02-21T11:29:24;100164.69;;;15.36;57.77
76011;BME280;64701;43.536;1.478;2024-02-21T11:31:50;100160.78;;;15.32;55.89
76011;BME280;64701;43.536;1.478;2024-02-21T11:34:19;100166.34;;;15.30;56.65
76011;BME280;64701;43.536;1.478;2024-02-21T11:36:48;100170.84;;;15.36;56.87
76011;BME280;64701;43.536;1.478;2024-02-21T11:39:24;100171.44;;;15.32;54.23
76011;BME280;64701;43.536;1.478;2024-02-21T11:42:05;100166.94;;;15.26;55.34
76011;BME280;64701;43.536;1.478;2024-02-21T11:44:34;100151.16;;;15.24;54.57
76011;BME280;64701;43.536;1.478;2024-02-21T11:47:00;100154.41;;;15.33;54.14
76011;BME280;64701;43.536;1.478;2024-02-21T11:49:25;100155.63;;;15.50;54.35
76011;BME280;64701;43.536;1.478;2024-02-21T11:51:58;100148.63;;;15.69;53.33
76011;BME280;64701;43.536;1.478;2024-02-21T11:54:24;100140.56;;;15.88;54.43
76011;BME280;64701;43.536;1.478;2024-02-21T11:56:49;100133.69;;;16.19;53.78
76011;BME280;64701;43.536;1.478;2024-02-21T11:59:14;100136.41;;;16.50;52.18
76011;BME280;64701;43.536;1.478;2024-02-21T12:01:39;100136.41;;;16.82;51.33
76011;BME280;64701;43.536;1.478;2024-02-21T12:04:05;100136.88;;;17.03;48.61
76011;BME280;64701;43.536;1.478;2024-02-21T12:06:32;100125.34;;;17.46;48.85
76011;BME280;64701;43.536;1.478;2024-02-21T12:08:57;100127.16;;;17.70;49.80
76011;BME280;64701;43.536;1.478;2024-02-21T12:11:23;100129.47;;;17.85;50.08
76011;BME280;64701;43.536;1.478;2024-02-21T12:14:03;100113.63;;;17.83;46.01
76011;BME280;64701;43.536;1.478;2024-02-21T12:16:30;100114.38;;;17.90;46.24
76011;BME280;64701;43.536;1.478;2024-02-21T12:18:56;100109.69;;;18.04;47.46
76011;BME280;64701;43.536;1.478;2024-02-21T12:21:29;100103.72;;;18.02;45.93
76011;BME280;64701;43.536;1.478;2024-02-21T12:23:55;100102.81;;;18.08;45.01
76011;BME280;64701;43.536;1.478;2024-02-21T12:26:21;100097.31;;;18.03;46.15
76011;BME280;64701;43.536;1.478;2024-02-21T12:28:46;100094.16;;;18.06;43.67
76011;BME280;64701;43.536;1.478;2024-02-21T12:31:12;100095.69;;;18.02;44.21
76011;BME280;64701;43.536;1.478;2024-02-21T12:33:37;100096.44;;;17.91;44.00
76011;BME280;64701;43.536;1.478;2024-02-21T12:36:02;100091.84;;;17.80;44.49
76011;BME280;64701;43.536;1.478;2024-02-21T12:38:29;100096.72;;;17.83;45.33
76011;BME280;64701;43.536;1.478;2024-02-21T12:40:54;100087.00;;;17.70;44.58
76011;BME280;64701;43.536;1.478;2024-02-21T12:43:20;100073.66;;;17.64;46.39
76011;BME280;64701;43.536;1.478;2024-02-21T12:45:45;100075.78;;;17.62;46.55
76011;BME280;64701;43.536;1.478;2024-02-21T12:48:10;100070.81;;;17.59;45.28